• Join FlightAware (Why Join?)
  • Login
  • US Flag 
07:00PM EDT


 

Airport Tracker/Info


-or-


 

Live Flight TrackerFlight Track Log ✈ DAL268 ✈ 21-Oct-2013 ✈ KSFO - KJFK

Flight Track Log - Related Links

Times and Time Zones

All times are in EDT time to prevent confusion due to time zone crossing. See the DAL268 flight status page for this flight to view local times or setup timezone preferences in your user account.

Time Position Orientation Groundspeed Altitude Reporting Facility
EDT Latitude Longitude Course Direction KTS MPH feet Rate Location/Type
02:28PM 37.6360 -122.3690 32° Northeast 165 190 700  Level FlightAware ADS-B
02:28PM 37.6418 -122.3630 39° Northeast 169 194 1,100 2,040 Climbing FlightAware ADS-B
02:29PM 37.6489 -122.3530 48° Northeast 186 214 1,500 1,980 Climbing FlightAware ADS-B
02:29PM 37.6589 -122.3390 48° Northeast 196 226 2,100 1,800 Climbing FlightAware ADS-B
02:29PM 37.6695 -122.3240 48° Northeast 220 253 2,500 2,100 Climbing FlightAware ADS-B
02:29PM 37.6806 -122.3100 45° Northeast 229 264 3,200 2,280 Climbing FlightAware ADS-B
02:30PM 37.6923 -122.2940 47° Northeast 246 283 3,700 2,040 Climbing FlightAware ADS-B
02:30PM 37.7072 -122.2720 49° Northeast 264 304 4,400 2,460 Climbing FlightAware ADS-B
02:30PM 37.7216 -122.2520 48° Northeast 270 311 5,200 3,120 Climbing FlightAware ADS-B
02:31PM 37.7361 -122.2310 49° Northeast 272 313 6,200 3,120 Climbing FlightAware ADS-B
02:31PM 37.7549 -122.2050 48° Northeast 279 321 7,300 2,760 Climbing FlightAware ADS-B
02:31PM 37.7595 -122.1990 46° Northeast 280 322 7,500 2,760 Climbing FlightAware ADS-B
02:31PM 37.7702 -122.1870 42° Northeast 284 327 8,000 3,240 Climbing FlightAware ADS-B
02:31PM 37.7830 -122.1750 37° Northeast 284 327 8,700 3,000 Climbing FlightAware ADS-B
02:32PM 37.8013 -122.1580 36° Northeast 285 328 9,500 2,340 Climbing FlightAware ADS-B
02:32PM 37.8349 -122.1260 37° Northeast 309 356 10,600 1,620 Climbing FlightAware ADS-B
02:33PM 37.8722 -122.0910 37° Northeast 340 391 11,200 1,260 Climbing FlightAware ADS-B
02:33PM 37.9131 -122.0530 36° Northeast 372 428 11,900 1,920 Climbing FlightAware ADS-B
02:34PM 37.9574 -122.0130 35° Northeast 379 436 13,200 2,520 Climbing FlightAware ADS-B
02:34PM 38.0039 -121.9700 36° Northeast 388 447 14,600 2,580 Climbing FlightAware ADS-B
02:35PM 38.0823 -121.8970 36° Northeast 393 452 16,900 2,400 Climbing FlightAware ADS-B
02:36PM 38.1330 -121.8500 36° Northeast 399 459 18,200 2,220 Climbing FlightAware
02:36PM 38.1870 -121.8000 36° Northeast 403 464 19,500 2,040 Climbing FlightAware
02:37PM 38.2420 -121.7480 37° Northeast 410 472 20,700 1,740 Climbing FlightAware
02:37PM 38.2900 -121.7030 36° Northeast 421 484 21,500 1,680 Climbing FlightAware
02:38PM 38.3480 -121.6480 37° Northeast 429 494 22,600 1,860 Climbing FlightAware
02:39PM 38.4000 -121.6000 36° Northeast 431 496 23,700 1,800 Climbing FlightAware
02:39PM 38.4570 -121.5350 42° Northeast 437 503 24,700 1,560 Climbing FlightAware
02:40PM 38.5010 -121.4630 52° Northeast 442 509 25,600 1,380 Climbing FlightAware
02:40PM 38.5450 -121.3870 53° Northeast 448 516 26,400 1,920 Climbing FlightAware
02:41PM 38.5840 -121.3190 54° Northeast 437 503 27,800 1,800 Climbing FlightAware
02:42PM 38.6270 -121.2430 54° Northeast 445 512 28,500 1,260 Climbing FlightAware
02:42PM 38.6690 -121.1710 53° Northeast 449 517 29,300 1,680 Climbing FlightAware
02:43PM 38.7110 -121.0980 54° Northeast 442 509 30,500 1,740 Climbing FlightAware
02:43PM 38.7570 -121.0180 54° Northeast 442 509 31,400 1,500 Climbing FlightAware
02:44PM 38.7980 -120.9470 53° Northeast 441 507 32,300 1,440 Climbing FlightAware
02:44PM 38.8360 -120.8800 54° Northeast 442 509 33,000 1,320 Climbing FlightAware
02:45PM 38.8860 -120.7940 53° Northeast 439 505 33,900 960 Climbing FlightAware
02:46PM 38.9270 -120.7230 53° Northeast 450 518 34,200 540 Climbing FlightAware
02:46PM 38.9351 -120.7086 54° Northeast 453 521 34,300 300 Climbing FlightAware ADS-B (KAHC)
02:46PM 38.9704 -120.6471 54° Northeast 465 535 34,400 660 Climbing FlightAware ADS-B (KAHC)
02:47PM 39.0150 -120.5690 54° Northeast 464 534 35,000 1,320 Climbing FlightAware
02:47PM 39.0403 -120.5254 53° Northeast 460 529 35,600 1,200 Climbing FlightAware ADS-B (KAHC)
02:48PM 39.0915 -120.4357 54° Northeast 461 531 36,200 900 Climbing FlightAware ADS-B (KAHC)
02:49PM 39.1413 -120.3481 54° Northeast 461 531 36,800 600 Climbing FlightAware ADS-B (KAHC)
02:49PM 39.1922 -120.2588 54° Northeast 460 529 37,000 120 Climbing FlightAware ADS-B (KAHC)
02:50PM 39.2326 -120.1874 54° Northeast 459 528 37,000  Level FlightAware ADS-B (KAHC)
02:50PM 39.2823 -120.0995 54° Northeast 459 528 37,000  Level FlightAware ADS-B (KAHC)
02:51PM 39.3221 -120.0289 54° Northeast 458 527 37,000  Level FlightAware ADS-B (KAHC)
02:51PM 39.3583 -119.9648 54° Northeast 458 527 37,000  Level FlightAware ADS-B (KAHC)
02:52PM 39.4154 -119.8628 54° Northeast 458 527 37,000  Level FlightAware ADS-B (KAHC)
02:53PM 39.4523 -119.7970 54° Northeast 458 527 37,000  Level FlightAware ADS-B (KAHC)
02:53PM 39.4911 -119.7275 54° Northeast 459 528 37,000  Level FlightAware ADS-B (KAHC)
02:54PM 39.5354 -119.6482 54° Northeast 459 528 37,000  Level FlightAware ADS-B (KAHC)
02:54PM 39.5859 -119.5577 54° Northeast 461 531 37,000  Level FlightAware ADS-B (KAHC)
02:55PM 39.6298 -119.4785 54° Northeast 462 532 37,000  Level FlightAware ADS-B (KAHC)
02:56PM 39.6798 -119.3883 54° Northeast 462 532 37,000  Level FlightAware ADS-B (KAHC)
02:56PM 39.7196 -119.3161 54° Northeast 462 532 37,000  Level FlightAware ADS-B (KAHC)
02:57PM 39.7567 -119.2490 54° Northeast 462 532 37,000  Level FlightAware ADS-B (KAHC)
02:57PM 39.7938 -119.1815 54° Northeast 463 533 37,000  Level FlightAware ADS-B (KAHC)
02:58PM 39.8318 -119.1125 54° Northeast 463 533 37,000  Level FlightAware ADS-B (KAHC)
02:58PM 39.8682 -119.0457 55° Northeast 463 533 37,000  Level FlightAware ADS-B (KAHC)
02:59PM 39.9088 -118.9717 54° Northeast 463 533 37,000  Level FlightAware ADS-B (KAHC)
02:59PM 39.9581 -118.8815 55° Northeast 463 533 37,000  Level FlightAware ADS-B (KAHC)
03:00PM 39.9949 -118.8140 55° Northeast 462 532 37,000  Level FlightAware ADS-B (KAHC)
03:00PM 40.0343 -118.7415 55° Northeast 462 532 37,000  Level FlightAware ADS-B (KAHC)
03:01PM 40.0710 -118.6738 55° Northeast 461 531 37,000  Level FlightAware ADS-B (KAHC)
03:02PM 40.1101 -118.5984 56° Northeast 462 532 37,000  Level FlightAware ADS-B (KAHC)
03:02PM 40.1453 -118.4983 65° Northeast 464 534 37,000  Level FlightAware ADS-B (KAHC)
03:03PM 40.1732 -118.3974 70° East 465 535 37,000  Level FlightAware ADS-B (KAHC)
03:04PM 40.2059 -118.2759 71° East 466 536 37,000  Level FlightAware ADS-B (KAHC)
03:04PM 40.2347 -118.1699 70° East 467 537 37,000  Level FlightAware ADS-B (KAHC)
03:05PM 40.2632 -118.0646 70° East 467 537 37,000  Level FlightAware ADS-B (KAHC)
03:06PM 40.2894 -117.9681 70° East 468 539 37,000  Level FlightAware ADS-B (KAHC)
03:06PM 40.3106 -117.8899 70° East 469 540 37,000  Level FlightAware ADS-B (KAHC)
03:07PM 40.3270 -117.8320 70° East 467 537 37,000  Level FlightAware
03:07PM 40.3445 -117.7646 71° East 470 541 37,000  Level FlightAware ADS-B (KAHC)
03:07PM 40.3717 -117.6631 71° East 469 540 37,000  Level FlightAware ADS-B (KAHC)
03:08PM 40.4018 -117.5503 71° East 470 541 37,000  Level FlightAware ADS-B (KAHC)
03:09PM 40.4220 -117.4749 71° East 470 541 37,000  Level FlightAware ADS-B (KAHC)
03:09PM 40.4370 -117.4380 62° Northeast 467 537 37,000  Level FlightAware
03:10PM 40.4590 -117.3560 71° East 467 537 37,000  Level FlightAware
03:11PM 40.4820 -117.2750 70° East 467 537 37,000  Level FlightAware
03:11PM 40.5010 -117.2040 71° East 467 537 37,000  Level FlightAware
03:12PM 40.5240 -117.1220 70° East 467 537 37,000  Level FlightAware
03:12PM 40.5470 -117.0380 70° East 467 537 37,000  Level FlightAware
03:13PM 40.5760 -116.9340 70° East 467 537 37,000  Level FlightAware
03:14PM 40.5990 -116.8520 70° East 467 537 37,000  Level FlightAware
03:14PM 40.6220 -116.7680 70° East 467 537 37,000  Level FlightAware
03:15PM 40.6440 -116.6860 71° East 467 537 37,000  Level FlightAware
03:17PM 40.7958 -116.0820 71° East 474 545 37,000  Level FlightAware ADS-B
03:18PM 40.8180 -115.9990 71° East 474 545 37,000  Level FlightAware ADS-B
03:18PM 40.8405 -115.9140 71° East 474 545 37,000  Level FlightAware ADS-B
03:19PM 40.8624 -115.8320 71° East 475 547 37,000  Level FlightAware ADS-B
03:19PM 40.8930 -115.7170 71° East 471 542 37,000  Level FlightAware
03:20PM 40.9180 -115.6220 71° East 472 543 37,000  Level FlightAware
03:20PM 40.9330 -115.5648 71° East 476 548 37,000  Level FlightAware ADS-B
03:22PM 41.0034 -115.2950 71° East 476 548 37,000  Level FlightAware ADS-B
03:22PM 41.0256 -115.2100 71° East 477 549 37,000  Level FlightAware ADS-B
03:23PM 41.0470 -115.1270 71° East 477 549 37,000  Level FlightAware ADS-B
03:23PM 41.0690 -115.0430 71° East 477 549 37,000  Level FlightAware ADS-B
03:24PM 41.1001 -114.9210 71° East 477 549 37,000  Level FlightAware ADS-B
03:25PM 41.1234 -114.8300 71° East 477 549 37,000  Level FlightAware ADS-B
03:25PM 41.1464 -114.7410 71° East 478 550 37,000  Level FlightAware ADS-B
03:26PM 41.1675 -114.6570 72° East 478 550 37,000  Level FlightAware ADS-B
03:26PM 41.1889 -114.5730 71° East 478 550 37,000  Level FlightAware ADS-B
03:27PM 41.2103 -114.4880 71° East 478 550 37,000  Level FlightAware ADS-B
03:27PM 41.2316 -114.4030 72° East 478 550 37,000  Level FlightAware ADS-B
03:28PM 41.2528 -114.3190 71° East 477 549 37,000  Level FlightAware ADS-B
03:28PM 41.2768 -114.2220 72° East 477 549 37,000  Level FlightAware ADS-B
03:29PM 41.2980 -114.1370 72° East 477 549 37,000  Level FlightAware
03:29PM 41.3145 -114.0700 72° East 478 550 37,000  Level FlightAware ADS-B
03:30PM 41.3353 -113.9860 72° East 478 550 37,000  Level FlightAware ADS-B
03:30PM 41.3545 -113.9080 72° East 478 550 37,000  Level FlightAware ADS-B
03:30PM 41.3559 -113.9017 73° East 479 551 37,000  Level FlightAware ADS-B
03:31PM 41.3618 -113.8740 74° East 479 551 37,000  Level FlightAware ADS-B
03:31PM 41.3671 -113.8450 76° East 481 554 37,000  Level FlightAware ADS-B
03:31PM 41.3723 -113.8046 80° East 483 556 37,000  Level FlightAware ADS-B
03:31PM 41.3746 -113.7820 82° East 484 557 37,000  Level FlightAware ADS-B
03:32PM 41.3821 -113.6860 84° East 485 558 37,000  Level FlightAware ADS-B
03:32PM 41.3881 -113.5950 85° East 486 559 37,000  Level FlightAware ADS-B
03:32PM 41.3892 -113.5800 85° East 486 559 37,000  Level FlightAware ADS-B
03:33PM 41.3941 -113.5050 85° East 486 559 37,000  Level FlightAware ADS-B
03:33PM 41.3944 -113.4994 85° East 486 559 37,000  Level FlightAware ADS-B
03:33PM 41.4000 -113.4160 85° East 487 560 37,000  Level FlightAware ADS-B
03:33PM 41.4024 -113.3807 85° East 487 560 37,000  Level FlightAware ADS-B
03:34PM 41.4061 -113.3240 85° East 487 560 37,000  Level FlightAware ADS-B
03:34PM 41.4106 -113.2551 85° East 487 560 37,000  Level FlightAware ADS-B
03:34PM 41.4121 -113.2320 85° East 488 562 37,000  Level FlightAware ADS-B
03:35PM 41.4170 -113.1601 85° East 488 562 37,000  Level FlightAware ADS-B
03:35PM 41.4183 -113.1380 85° East 488 562 37,000  Level FlightAware ADS-B
03:35PM 41.4235 -113.0592 85° East 488 562 37,000  Level FlightAware ADS-B
03:35PM 41.4243 -113.0460 85° East 488 562 37,000  Level FlightAware ADS-B
03:36PM 41.4293 -112.9684 85° East 488 562 37,000  Level FlightAware ADS-B
03:36PM 41.4303 -112.9530 85° East 488 562 37,000  Level FlightAware ADS-B
03:36PM 41.4351 -112.8748 85° East 488 562 37,000  Level FlightAware ADS-B
03:36PM 41.4375 -112.8350 85° East 488 562 37,000  Level FlightAware ADS-B
03:37PM 41.4406 -112.7849 85° East 488 562 37,000  Level FlightAware ADS-B
03:37PM 41.4432 -112.7440 85° East 488 562 37,000  Level FlightAware ADS-B
03:37PM 41.4463 -112.6917 85° East 489 563 37,000  Level FlightAware ADS-B
03:37PM 41.4487 -112.6530 85° East 489 563 37,000  Level FlightAware ADS-B
03:38PM 41.4535 -112.5720 85° East 489 563 37,000  Level FlightAware ADS-B
03:38PM 41.4547 -112.5520 85° East 488 562 37,000  Level FlightAware ADS-B
03:38PM 41.4590 -112.4789 85° East 489 563 37,000  Level FlightAware ADS-B
03:38PM 41.4602 -112.4600 85° East 488 562 37,000  Level FlightAware ADS-B
03:39PM 41.4643 -112.3892 86° East 489 563 37,000  Level FlightAware ADS-B
03:39PM 41.4673 -112.3380 86° East 489 563 37,000  Level FlightAware ADS-B
03:39PM 41.4697 -112.2938 86° East 489 563 37,000  Level FlightAware ADS-B
03:40PM 41.4724 -112.2460 86° East 490 564 37,000  Level FlightAware ADS-B
03:40PM 41.4746 -112.2063 86° East 490 564 37,000  Level FlightAware ADS-B
03:40PM 41.4774 -112.1540 86° East 490 564 37,000  Level FlightAware ADS-B
03:40PM 41.4801 -112.1061 86° East 490 564 37,000  Level FlightAware ADS-B
03:41PM 41.4827 -112.0580 86° East 490 564 37,000  Level FlightAware ADS-B
03:41PM 41.4880 -111.9590 86° East 490 564 37,000  Level FlightAware ADS-B
03:41PM 41.4887 -111.9473 85° East 490 564 37,000  Level FlightAware ADS-B
03:42PM 41.4932 -111.8640 86° East 490 564 37,000  Level FlightAware ADS-B
03:42PM 41.4935 -111.8548 88° East 490 564 37,000  Level FlightAware ADS-B
03:42PM 41.4983 -111.7650 86° East 490 564 37,000  Level FlightAware ADS-B
03:42PM 41.4985 -111.7605 87° East 490 564 37,000  Level FlightAware ADS-B
03:43PM 41.5031 -111.6690 86° East 490 564 37,000  Level FlightAware ADS-B
03:43PM 41.5077 -111.5780 86° East 491 565 37,000  Level FlightAware ADS-B
03:44PM 41.5122 -111.4870 86° East 491 565 37,000  Level FlightAware ADS-B
03:44PM 41.5137 -111.4543 86° East 491 565 37,000  Level FlightAware ADS-B
03:44PM 41.5167 -111.3940 86° East 491 565 37,000  Level FlightAware ADS-B
03:45PM 41.5179 -111.3669 87° East 491 565 37,000  Level FlightAware ADS-B
03:45PM 41.5210 -111.3020 86° East 491 565 37,000  Level FlightAware ADS-B
03:45PM 41.5252 -111.2110 86° East 491 565 37,000  Level FlightAware ADS-B
03:46PM 41.5297 -111.1130 86° East 491 565 37,000  Level FlightAware ADS-B
03:46PM 41.5339 -111.0220 86° East 490 564 37,000  Level FlightAware ADS-B
03:47PM 41.5380 -110.9300 87° East 490 564 37,000  Level FlightAware
03:47PM 41.5392 -110.8980 87° East 491 565 37,000  Level FlightAware ADS-B
03:48PM 41.5431 -110.8070 87° East 492 566 37,000  Level FlightAware ADS-B
03:49PM 41.5510 -110.6130 87° East 490 564 37,000  Level FlightAware
03:49PM 41.5550 -110.5050 87° East 490 564 37,000  Level FlightAware
03:50PM 41.5590 -110.4090 87° East 490 564 37,000  Level FlightAware
03:50PM 41.5630 -110.3060 87° East 491 565 37,000  Level FlightAware
03:51PM 41.5650 -110.2440 88° East 492 566 37,000  Level FlightAware
03:52PM 41.5690 -110.1450 87° East 492 566 37,000  Level FlightAware
03:52PM 41.5730 -110.0470 87° East 492 566 37,000  Level FlightAware
03:53PM 41.5780 -109.8700 88° East 492 566 37,000  Level FlightAware
03:53PM 41.5820 -109.7690 87° East 492 566 37,000  Level FlightAware
03:54PM 41.5850 -109.6710 88° East 492 566 37,000  Level FlightAware
03:54PM 41.5880 -109.5500 88° East 493 567 37,000  Level FlightAware
03:55PM 41.5910 -109.4520 88° East 494 568 37,000  Level FlightAware
03:56PM 41.5940 -109.3430 88° East 495 570 37,000  Level FlightAware
03:56PM 41.5970 -109.2320 88° East 496 571 37,000  Level FlightAware
03:57PM 41.6000 -109.1260 88° East 497 572 37,000  Level FlightAware
03:57PM 41.6040 -109.0330 87° East 495 570 37,000  Level FlightAware
03:58PM 41.6140 -108.9270 83° East 492 566 37,000  Level FlightAware
03:59PM 41.6280 -108.8090 81° East 492 566 37,000  Level FlightAware
03:59PM 41.6400 -108.7060 81° East 492 566 37,000  Level FlightAware
04:00PM 41.6530 -108.5990 81° East 491 565 37,000  Level FlightAware
04:00PM 41.6640 -108.5040 81° East 491 565 37,000  Level FlightAware
04:01PM 41.6760 -108.3970 81° East 491 565 37,000  Level FlightAware
04:01PM 41.6880 -108.2980 81° East 492 566 37,000  Level FlightAware
04:02PM 41.7010 -108.1850 81° East 491 565 37,000  Level FlightAware
04:03PM 41.7130 -108.0790 81° East 491 565 37,000  Level FlightAware
04:03PM 41.7250 -107.9710 81° East 491 565 37,000  Level FlightAware
04:04PM 41.7350 -107.8730 82° East 492 566 37,000  Level FlightAware
04:04PM 41.7470 -107.7670 81° East 491 565 37,000  Level FlightAware
04:05PM 41.7580 -107.6690 81° East 491 565 37,000  Level FlightAware
04:06PM 41.7690 -107.5690 82° East 491 565 37,000  Level FlightAware
04:06PM 41.7750 -107.4460 86° East 491 565 37,000  Level FlightAware
04:07PM 41.7810 -107.3510 85° East 491 565 37,000  Level FlightAware
04:07PM 41.7890 -107.2050 86° East 489 563 37,000  Level FlightAware
04:08PM 41.7960 -107.1020 85° East 489 563 37,000  Level FlightAware
04:09PM 41.8020 -107.0100 85° East 489 563 37,000  Level FlightAware
04:09PM 41.8080 -106.9170 85° East 489 563 37,000  Level FlightAware
04:10PM 41.8140 -106.8240 85° East 489 563 37,000  Level FlightAware
04:11PM 41.8200 -106.7290 85° East 489 563 37,000  Level FlightAware
04:11PM 41.8270 -106.6290 85° East 489 563 37,000  Level FlightAware
04:12PM 41.8330 -106.5340 85° East 489 563 37,000 660 Level FlightAware
04:12PM 41.8380 -106.3130 88° East 496 571 37,800 1,140 Climbing FlightAware
04:13PM 41.8440 -106.1970 86° East 495 570 38,400 900 Climbing FlightAware
04:14PM 41.8490 -106.0940 86° East 493 567 38,900 480 Climbing FlightAware
04:14PM 41.8560 -105.9840 85° East 490 564 39,000 60 Climbing FlightAware
04:15PM 41.8680 -105.8780 81° East 489 563 39,000  Level FlightAware
04:15PM 41.8790 -105.7830 81° East 489 563 39,000  Level FlightAware
04:16PM 41.8920 -105.6680 81° East 491 565 39,000  Level FlightAware
04:17PM 41.9100 -105.5130 81° East 491 565 39,000  Level FlightAware
04:17PM 41.9230 -105.3940 82° East 490 564 39,000  Level FlightAware
04:18PM 41.9350 -105.2880 81° East 491 565 39,000  Level FlightAware
04:19PM 41.9450 -105.1970 82° East 493 567 39,000  Level FlightAware
04:19PM 41.9550 -105.1020 82° East 495 570 39,000  Level FlightAware
04:20PM 41.9740 -104.9280 82° East 499 574 39,000  Level FlightAware
04:21PM 41.9910 -104.7740 82° East 499 574 39,000  Level FlightAware
04:22PM 42.0040 -104.6470 82° East 500 575 39,000  Level FlightAware
04:22PM 42.0140 -104.5490 82° East 501 577 39,000  Level FlightAware
04:23PM 42.0240 -104.4500 82° East 501 577 39,000  Level FlightAware
04:23PM 42.0360 -104.3370 82° East 501 577 39,000  Level FlightAware
04:24PM 42.0460 -104.2340 83° East 501 577 39,000  Level FlightAware
04:25PM 42.0560 -104.1370 82° East 501 577 39,000  Level FlightAware
04:25PM 42.0660 -104.0450 82° East 501 577 39,000  Level FlightAware
04:26PM 42.0760 -103.9530 82° East 501 577 39,000  Level FlightAware
04:26PM 42.0850 -103.8580 83° East 501 577 39,000  Level FlightAware
04:27PM 42.1080 -103.6080 83° East 498 573 39,000  Level FlightAware
04:28PM 42.1190 -103.5010 82° East 498 573 39,000  Level FlightAware
04:28PM 42.1290 -103.4070 82° East 498 573 39,000  Level FlightAware
04:29PM 42.1380 -103.3120 83° East 498 573 39,000  Level FlightAware
04:30PM 42.1490 -103.1780 84° East 496 571 39,000  Level FlightAware
04:30PM 42.1590 -103.0790 82° East 496 571 39,000  Level FlightAware
04:31PM 42.1690 -102.9850 82° East 496 571 39,000  Level FlightAware
04:31PM 42.1790 -102.8510 84° East 498 573 39,000  Level FlightAware
04:32PM 42.1890 -102.7410 83° East 499 574 39,000  Level FlightAware
04:33PM 42.1980 -102.6340 83° East 499 574 39,000  Level FlightAware
04:33PM 42.2070 -102.5400 83° East 499 574 39,000  Level FlightAware
04:34PM 42.2150 -102.4480 83° East 499 574 39,000  Level FlightAware
04:34PM 42.2260 -102.3150 84° East 503 579 39,000  Level FlightAware
04:35PM 42.2350 -102.2120 83° East 503 579 39,000  Level FlightAware
04:35PM 42.2440 -102.1140 83° East 503 579 39,000  Level FlightAware
04:36PM 42.2530 -102.0180 83° East 503 579 39,000  Level FlightAware
04:37PM 42.2610 -101.9230 83° East 503 579 39,000  Level FlightAware
04:37PM 42.2700 -101.8270 83° East 503 579 39,000  Level FlightAware
04:38PM 42.2790 -101.7320 83° East 503 579 39,000  Level FlightAware
04:38PM 42.2880 -101.6340 83° East 503 579 39,000  Level FlightAware
04:39PM 42.2970 -101.5300 83° East 503 579 39,000  Level FlightAware
04:40PM 42.3060 -101.4270 83° East 503 579 39,000  Level FlightAware
04:40PM 42.3150 -101.3280 83° East 503 579 39,000  Level FlightAware
04:41PM 42.3240 -101.2380 82° East 503 579 39,000  Level FlightAware
04:42PM 42.3320 -101.1400 84° East 503 579 39,000  Level FlightAware
04:42PM 42.3410 -101.0440 83° East 503 579 39,000  Level FlightAware
04:43PM 42.3500 -100.9490 83° East 503 579 39,000  Level FlightAware
04:43PM 42.3580 -100.8530 84° East 503 579 39,000  Level FlightAware
04:44PM 42.3670 -100.7570 83° East 503 579 39,000  Level FlightAware
04:48PM 42.4250 -99.6960 85° East 496 571 39,000  Level FlightAware
04:49PM 42.4390 -99.4950 85° East 496 571 39,000  Level FlightAware
04:50PM 42.4440 -99.4170 85° East 497 572 39,000  Level FlightAware
04:50PM 42.4520 -99.2870 85° East 499 574 39,000  Level FlightAware
04:51PM 42.4590 -99.1710 85° East 500 575 39,000  Level FlightAware
04:52PM 42.4660 -99.0580 85° East 500 575 39,000  Level FlightAware
04:52PM 42.4710 -98.9620 86° East 500 575 39,000  Level FlightAware
04:53PM 42.4770 -98.8600 85° East 501 577 39,000  Level FlightAware
04:53PM 42.4830 -98.7450 86° East 502 578 39,000  Level FlightAware
04:54PM 42.4900 -98.6280 85° East 502 578 39,000  Level FlightAware
04:55PM 42.4950 -98.5210 86° East 501 577 39,000  Level FlightAware
04:55PM 42.5010 -98.4130 86° East 502 578 39,000  Level FlightAware
04:56PM 42.5060 -98.3120 86° East 502 578 39,000  Level FlightAware
04:56PM 42.5120 -98.2040 86° East 504 580 39,000  Level FlightAware
04:57PM 42.5180 -98.0720 86° East 505 581 39,000  Level FlightAware
04:57PM 42.5230 -97.9760 86° East 505 581 39,000  Level FlightAware
04:58PM 42.5290 -97.8590 86° East 506 582 39,000  Level FlightAware
04:59PM 42.5340 -97.7490 86° East 505 581 39,000  Level FlightAware
04:59PM 42.5390 -97.6320 87° East 505 581 39,000  Level FlightAware
05:00PM 42.5430 -97.5380 87° East 505 581 39,000  Level FlightAware
05:00PM 42.5490 -97.4160 86° East 506 582 39,000  Level FlightAware
05:01PM 42.5530 -97.3060 87° East 507 583 39,000  Level FlightAware
05:02PM 42.5580 -97.1890 87° East 508 585 39,000  Level FlightAware
05:02PM 42.5620 -97.0900 87° East 508 585 39,000  Level FlightAware
05:03PM 42.5670 -96.9750 87° East 508 585 39,000  Level FlightAware
05:03PM 42.5710 -96.8650 87° East 509 586 39,000  Level FlightAware
05:04PM 42.5750 -96.7590 87° East 510 587 39,000  Level FlightAware
05:04PM 42.5790 -96.6350 87° East 511 588 39,000  Level FlightAware
05:05PM 42.5830 -96.5330 87° East 511 588 39,000  Level FlightAware
05:05PM 42.5849 -96.4684 88° East 511 588 39,000  Level FlightAware ADS-B
05:06PM 42.5900 -96.3020 88° East 511 588 39,000  Level FlightAware
05:07PM 42.5944 -96.1737 87° East 512 589 39,000  Level FlightAware ADS-B
05:08PM 42.6000 -95.9700 88° East 512 589 39,000  Level FlightAware
05:08PM 42.6021 -95.9020 88° East 512 589 39,000  Level FlightAware ADS-B
05:09PM 42.6060 -95.7480 88° East 513 590 39,000  Level FlightAware
05:10PM 42.6100 -95.6051 88° East 514 592 39,000  Level FlightAware ADS-B
05:11PM 42.6144 -95.4118 88° East 516 594 39,000  Level FlightAware ADS-B
05:11PM 42.6120 -95.5150 268° West 515 593 39,000  Level FlightAware ADS-B
05:12PM 42.6177 -95.2577 88° East 517 595 39,000  Level FlightAware ADS-B
05:12PM 42.6200 -95.1540 88° East 517 595 39,000  Level FlightAware
05:12PM 42.6203 -95.1290 89° East 517 595 39,000  Level FlightAware ADS-B
05:13PM 42.6223 -95.0225 88° East 516 594 39,000  Level FlightAware ADS-B
05:13PM 42.6240 -94.9290 89° East 517 595 39,000  Level FlightAware
05:14PM 42.6246 -94.9022 88° East 516 594 39,000  Level FlightAware ADS-B
05:14PM 42.6270 -94.7499 89° East 516 594 39,000  Level FlightAware ADS-B
05:15PM 42.6280 -94.6886 89° East 516 594 39,000  Level FlightAware ADS-B
05:15PM 42.6294 -94.5869 89° East 515 593 39,000  Level FlightAware ADS-B
05:16PM 42.6310 -94.4720 89° East 516 594 39,000  Level FlightAware
05:16PM 42.6307 -94.4804 267° West 515 593 39,000  Level FlightAware ADS-B
05:17PM 42.6323 -94.3609 89° East 516 594 39,000  Level FlightAware ADS-B
05:17PM 42.6340 -94.1340 89° East 516 594 39,000  Level FlightAware
05:18PM 42.6342 -94.1834 270° West 516 594 39,000  Level FlightAware ADS-B
05:19PM 42.6360 -93.9160 89° East 516 594 39,000  Level FlightAware
05:19PM 42.6362 -93.9343 271° West 516 594 39,000  Level FlightAware ADS-B
05:20PM 42.6380 -93.6800 89° East 517 595 39,000  Level FlightAware
05:20PM 42.6380 -93.5880 90° East 517 595 39,000  Level FlightAware
05:21PM 42.6380 -93.4680 90° East 518 596 39,000  Level FlightAware
05:22PM 42.6390 -93.3420 89° East 518 596 39,000  Level FlightAware
05:22PM 42.6390 -93.2450 90° East 519 597 39,000  Level FlightAware
05:23PM 42.6390 -93.1240 90° East 520 598 39,000  Level FlightAware
05:23PM 42.6380 -92.9960 91° East 521 600 39,000  Level FlightAware
05:24PM 42.6380 -92.8610 90° East 522 601 39,000  Level FlightAware
05:25PM 42.6380 -92.7550 90° East 523 602 39,000  Level FlightAware
05:25PM 42.6370 -92.6380 91° East 523 602 39,000  Level FlightAware
05:26PM 42.6360 -92.5160 91° East 524 603 39,000  Level FlightAware
05:26PM 42.6352 -92.4079 91° East 525 604 39,000  Level FlightAware ADS-B
05:27PM 42.6340 -92.2890 91° East 526 605 39,000  Level FlightAware
05:27PM 42.6330 -92.1770 91° East 527 606 39,000  Level FlightAware
05:28PM 42.6321 -92.0852 91° East 529 609 39,000  Level FlightAware ADS-B
05:29PM 42.6300 -91.9440 91° East 530 610 39,000  Level FlightAware
05:29PM 42.6298 -91.8993 90° East 530 610 39,000  Level FlightAware ADS-B
05:29PM 42.6282 -91.7819 91° East 531 611 39,000  Level FlightAware ADS-B
05:30PM 42.6266 -91.6665 91° East 532 612 39,000  Level FlightAware ADS-B
05:31PM 42.6235 -91.4815 91° East 532 612 39,000  Level FlightAware ADS-B
05:32PM 42.6215 -91.3645 91° East 532 612 39,000  Level FlightAware ADS-B
05:32PM 42.6189 -91.2176 91° East 533 613 39,000  Level FlightAware ADS-B
05:33PM 42.6160 -91.1050 92° East 533 613 39,000  Level FlightAware
05:33PM 42.6150 -91.0130 91° East 532 612 39,000  Level FlightAware
05:34PM 42.6134 -90.9558 92° East 533 613 39,000  Level FlightAware ADS-B
05:34PM 42.6106 -90.8264 92° East 534 615 39,000  Level FlightAware ADS-B
05:35PM 42.6070 -90.6772 92° East 533 613 39,000  Level FlightAware ADS-B
05:36PM 42.6040 -90.5440 92° East 534 615 39,000  Level FlightAware
05:36PM 42.6000 -90.4080 92° East 534 615 39,000  Level FlightAware
05:37PM 42.5970 -90.2760 92° East 534 615 39,000  Level FlightAware
05:38PM 42.5940 -90.1660 92° East 534 615 39,000  Level FlightAware
05:38PM 42.5900 -90.0420 92° East 533 613 39,000  Level FlightAware
05:39PM 42.5870 -89.9280 92° East 533 613 39,000  Level FlightAware
05:39PM 42.5840 -89.8200 92° East 532 612 39,000  Level FlightAware
05:40PM 42.5790 -89.6900 93° East 531 611 39,000  Level FlightAware
05:40PM 42.5760 -89.5840 92° East 531 611 39,000  Level FlightAware
05:41PM 42.5720 -89.4660 93° East 530 610 39,000  Level FlightAware
05:42PM 42.5680 -89.3450 93° East 531 611 39,000  Level FlightAware
05:42PM 42.5640 -89.2380 93° East 531 611 39,000  Level FlightAware
05:43PM 42.5600 -89.1140 92° East 531 611 39,000  Level FlightAware
05:43PM 42.5550 -88.9940 93° East 532 612 39,000  Level FlightAware
05:44PM 42.5510 -88.8920 93° East 533 613 39,000  Level FlightAware
05:45PM 42.5470 -88.7680 92° East 534 615 39,000  Level FlightAware
05:45PM 42.5420 -88.6440 93° East 534 615 39,000  Level FlightAware
05:46PM 42.5370 -88.5360 94° East 534 615 39,000  Level FlightAware
05:46PM 42.5330 -88.4220 93° East 535 616 39,000  Level FlightAware
05:47PM 42.5270 -88.2970 94° East 536 617 39,000  Level FlightAware
05:47PM 42.5220 -88.1770 93° East 536 617 39,000  Level FlightAware
05:48PM 42.5180 -88.0720 93° East 536 617 39,000  Level FlightAware
05:49PM 42.5150 -87.9560 92° East 538 619 39,000  Level FlightAware
05:49PM 42.5140 -87.8340 91° East 539 620 39,000  Level FlightAware
05:50PM 42.5140 -87.7080 90° East 539 620 39,000  Level FlightAware
05:50PM 42.5130 -87.5940 91° East 539 620 39,000  Level FlightAware
05:51PM 42.5130 -87.4850 90° East 540 621 39,000  Level FlightAware
05:52PM 42.5130 -87.3590 90° East 540 621 39,000  Level FlightAware
05:52PM 42.5120 -87.2510 91° East 540 621 39,000  Level FlightAware
05:53PM 42.5110 -87.1290 91° East 540 621 39,000  Level FlightAware
05:53PM 42.5100 -87.0030 91° East 540 621 39,000  Level FlightAware
05:54PM 42.5090 -86.9030 91° East 540 621 39,000  Level FlightAware
05:54PM 42.5080 -86.7750 91° East 541 623 39,000  Level FlightAware
05:55PM 42.5070 -86.6590 91° East 541 623 39,000  Level FlightAware
05:56PM 42.5060 -86.5340 91° East 542 624 39,000  Level FlightAware
05:56PM 42.5040 -86.4240 91° East 542 624 39,000  Level FlightAware
05:57PM 42.5020 -86.2870 91° East 542 624 39,000  Level FlightAware
05:57PM 42.5010 -86.1810 91° East 542 624 39,000  Level FlightAware
05:58PM 42.4990 -86.0620 91° East 542 624 39,000  Level FlightAware
05:59PM 42.4970 -85.9370 91° East 542 624 39,000  Level FlightAware
05:59PM 42.4950 -85.8110 91° East 540 621 39,000  Level FlightAware
06:00PM 42.4940 -85.7090 91° East 539 620 39,000  Level FlightAware
06:00PM 42.4920 -85.6000 91° East 539 620 39,000  Level FlightAware
06:01PM 42.4890 -85.4810 92° East 540 621 39,000  Level FlightAware
06:01PM 42.4870 -85.3650 91° East 539 620 39,000  Level FlightAware
06:02PM 42.4850 -85.2460 91° East 539 620 39,000  Level FlightAware
06:03PM 42.4820 -85.1390 92° East 539 620 39,000  Level FlightAware
06:03PM 42.4790 -85.0080 92° East 539 620 39,000  Level FlightAware
06:04PM 42.4770 -84.9060 91° East 540 621 39,000  Level FlightAware
06:04PM 42.4730 -84.7650 92° East 540 621 39,000  Level FlightAware
06:05PM 42.4710 -84.6690 92° East 541 623 39,000  Level FlightAware
06:05PM 42.4680 -84.5360 92° East 542 624 39,000  Level FlightAware
06:06PM 42.4650 -84.4250 92° East 544 626 39,000  Level FlightAware
06:07PM 42.4610 -84.2930 92° East 545 627 39,000  Level FlightAware
06:07PM 42.4570 -84.1580 92° East 547 629 39,000  Level FlightAware
06:08PM 42.4530 -84.0400 93° East 547 629 39,000  Level FlightAware
06:09PM 42.4490 -83.9190 93° East 547 629 39,000  Level FlightAware
06:09PM 42.4460 -83.8040 92° East 548 631 39,000  Level FlightAware
06:10PM 42.4420 -83.6760 92° East 548 631 39,000  Level FlightAware
06:10PM 42.4370 -83.5540 93° East 548 631 39,000  Level FlightAware
06:11PM 42.4350 -83.4910 92° East 548 631 39,000  Level FlightAware
06:11PM 42.4280 -83.3130 93° East 548 631 39,000  Level FlightAware
06:12PM 42.4240 -83.1970 93° East 548 631 39,000  Level FlightAware
06:13PM 42.4200 -83.0940 93° East 547 629 39,000  Level FlightAware
06:13PM 42.4150 -82.9580 93° East 547 629 39,000  Level FlightAware
06:14PM 42.4100 -82.8390 93° East 546 628 39,000  Level FlightAware
06:14PM 42.4050 -82.7190 93° East 547 629 39,000  Level FlightAware
06:15PM 42.4000 -82.6080 93° East 548 631 39,000  Level FlightAware
06:16PM 42.3960 -82.4790 92° East 548 631 39,000  Level FlightAware
06:16PM 42.3920 -82.3570 93° East 548 631 39,000  Level FlightAware
06:17PM 42.3880 -82.2560 93° East 548 631 39,000  Level FlightAware
06:17PM 42.3830 -82.1270 93° East 548 631 39,000  Level FlightAware
06:18PM 42.3780 -81.9920 93° East 548 631 39,000  Level FlightAware
06:18PM 42.3730 -81.8760 93° East 548 631 39,000  Level FlightAware
06:19PM 42.3680 -81.7610 93° East 548 631 39,000  Level FlightAware
06:20PM 42.3630 -81.6470 93° East 548 631 39,000  Level FlightAware
06:20PM 42.3580 -81.5280 93° East 548 631 39,000  Level FlightAware
06:21PM 42.3530 -81.4170 93° East 549 632 39,000  Level FlightAware
06:21PM 42.3470 -81.2830 93° East 548 631 39,000  Level FlightAware
06:22PM 42.3410 -81.1590 94° East 547 629 39,000  Level FlightAware
06:22PM 42.3350 -81.0490 94° East 547 629 39,000  Level FlightAware
06:23PM 42.3290 -80.9240 94° East 547 629 39,000  Level FlightAware
06:24PM 42.3230 -80.7990 94° East 546 628 39,000  Level FlightAware
06:24PM 42.3130 -80.6940 97° East 542 624 39,000  Level FlightAware
06:25PM 42.3010 -80.5930 99° East 541 623 39,000  Level FlightAware
06:25PM 42.2820 -80.4550 100° East 540 621 39,000  Level FlightAware
06:26PM 42.2670 -80.3420 100° East 541 623 39,000  Level FlightAware
06:27PM 42.2500 -80.2190 101° East 541 623 39,000  Level FlightAware
06:27PM 42.2360 -80.1180 101° East 543 625 39,000  Level FlightAware
06:28PM 42.2200 -80.0000 100° East 543 625 39,000  Level FlightAware
06:28PM 42.2040 -79.8820 100° East 544 626 39,000  Level FlightAware
06:29PM 42.1870 -79.7620 101° East 545 627 39,000  Level FlightAware
06:30PM 42.1690 -79.6350 101° East 545 627 39,000  Level FlightAware
06:30PM 42.1560 -79.5430 101° East 546 628 39,000  Level FlightAware
06:31PM 42.1380 -79.4220 101° East 548 631 39,000  Level FlightAware
06:31PM 42.1210 -79.3020 101° East 548 631 39,000  Level FlightAware
06:32PM 42.1060 -79.2040 102° East 547 629 39,000  Level FlightAware
06:32PM 42.0880 -79.0780 101° East 547 629 39,000  Level FlightAware
06:33PM 42.0700 -78.9590 101° East 549 632 39,000  Level FlightAware
06:34PM 42.0520 -78.8380 101° East 551 634 39,000  Level FlightAware
06:34PM 42.0360 -78.7360 102° East 551 634 39,000  Level FlightAware
06:35PM 42.0170 -78.6060 101° East 551 634 39,000  Level FlightAware
06:35PM 41.9990 -78.4910 102° East 550 633 39,000  Level FlightAware
06:36PM 41.9800 -78.3700 102° East 550 633 39,000  Level FlightAware
06:36PM 41.9630 -78.2610 102° East 550 633 39,000  Level FlightAware
06:37PM 41.9430 -78.1380 102° East 551 634 39,000  Level FlightAware
06:38PM 41.9260 -78.0300 102° East 551 634 39,000  Level FlightAware
06:38PM 41.9050 -77.8980 102° East 549 632 39,000  Level FlightAware
06:39PM 41.8840 -77.7970 106° East 545 627 39,000  Level FlightAware
06:39PM 41.8550 -77.6870 109° East 543 625 39,000  Level FlightAware
06:40PM 41.8230 -77.5660 110° East 543 625 39,000  Level FlightAware
06:41PM 41.7940 -77.4580 110° East 544 626 39,000  Level FlightAware
06:41PM 41.7630 -77.3440 110° East 544 626 39,000  Level FlightAware
06:42PM 41.7340 -77.2360 110° East 544 626 39,000 -300 Level FlightAware
06:42PM 41.7020 -77.1170 110° East 542 624 38,700 -780 Descending FlightAware
06:43PM 41.6710 -77.0040 110° East 543 625 38,000 -1,080 Descending FlightAware
06:44PM 41.6370 -76.8810 110° East 542 624 37,400 -1,200 Descending FlightAware
06:44PM 41.6050 -76.7650 110° East 544 626 36,600 -1,200 Descending FlightAware
06:45PM 41.5790 -76.6710 110° East 544 626 36,100 -1,020 Descending FlightAware
06:45PM 41.5450 -76.5510 111° Southeast 545 627 35,500 -1,020 Descending FlightAware
06:46PM 41.5130 -76.4350 110° East 543 625 34,900 -900 Descending FlightAware
06:46PM 41.4880 -76.3460 111° Southeast 538 619 34,500 -840 Descending FlightAware
06:47PM 41.4550 -76.2280 110° East 533 613 34,000 -780 Descending FlightAware
06:48PM 41.4240 -76.1210 111° Southeast 527 606 33,600 -960 Descending FlightAware
06:48PM 41.3920 -76.0100 111° Southeast 529 609 32,900 -1,200 Descending FlightAware
06:49PM 41.3620 -75.9040 111° Southeast 527 606 32,200 -2,040 Descending FlightAware
06:49PM 41.3310 -75.7950 111° Southeast 526 605 30,600 -2,760 Descending FlightAware
06:50PM 41.3030 -75.7010 112° Southeast 519 597 29,100 -3,000 Descending FlightAware
06:51PM 41.2670 -75.5900 113° Southeast 515 593 27,100 -2,820 Descending FlightAware
06:51PM 41.2360 -75.4990 114° Southeast 503 579 25,800 -2,520 Descending FlightAware
06:52PM 41.2010 -75.3950 114° Southeast 488 562 24,200 -2,280 Descending FlightAware
06:52PM 41.1690 -75.3020 115° Southeast 480 552 23,100 -1,080 Descending FlightAware
06:53PM 41.1390 -75.2150 115° Southeast 479 551 23,000 -120 Descending FlightAware
06:53PM 41.1070 -75.1230 115° Southeast 488 562 23,000  Level FlightAware
06:54PM 41.0720 -75.0200 114° Southeast 490 564 23,000 -180 Level FlightAware
06:55PM 41.0360 -74.9170 115° Southeast 494 568 22,800 -720 Descending FlightAware
06:55PM 41.0140 -74.8230 107° East 489 563 22,200 -1,080 Descending FlightAware
06:56PM 41.0020 -74.7330 100° East 486 559 21,700 -1,020 Descending FlightAware
06:56PM 40.9900 -74.6240 98° East 480 552 21,100 -960 Descending FlightAware
06:57PM 40.9790 -74.5230 98° East 473 544 20,600 -960 Descending FlightAware
06:58PM 40.9680 -74.4250 98° East 472 543 20,000 -1,140 Descending FlightAware
06:58PM 40.9550 -74.3110 99° East 458 527 19,200 -540 Descending FlightAware
06:59PM 40.9468 -74.2417 99° East 19,000 -180 Descending FlightAware ADS-B
06:59PM 40.9270 -74.1243 103° East 398 458 19,000  Level FlightAware ADS-B
07:00PM 40.9235 -74.1139 114° Southeast 368 423 19,000  Level FlightAware ADS-B
07:00PM 40.9171 -74.0978 118° Southeast 362 417 19,000 -180 Level FlightAware ADS-B
07:00PM 40.8896 -74.0413 123° Southeast 358 412 18,900 -900 Descending FlightAware ADS-B
07:01PM 40.8614 -73.9852 124° Southeast 355 409 18,100 -1,620 Descending FlightAware ADS-B
07:01PM 40.8220 -73.9070 124° Southeast 352 405 16,900 -1,620 Descending FlightAware
07:02PM 40.8152 -73.8928 122° Southeast 350 403 16,700 -1,440 Descending FlightAware ADS-B (KSNC)
07:02PM 40.7858 -73.8401 126° Southeast 353 406 16,000 -1,740 Descending FlightAware ADS-B
07:02PM 40.7809 -73.8322 130° Southeast 338 389 15,600 -1,680 Descending FlightAware ADS-B (KSNC)
07:03PM 40.7504 -73.7840 130° Southeast 329 379 14,800 -1,740 Descending FlightAware ADS-B (KSNC)
07:04PM 40.6980 -73.7110 133° Southeast 314 361 13,300 -2,220 Descending FlightAware
07:04PM 40.6800 -73.6990 153° Southeast 304 350 12,700 -2,460 Descending FlightAware
07:04PM 40.6330 -73.6770 160° South 297 342 11,400 -2,100 Descending FlightAware
07:05PM 40.5870 -73.6570 162° South 287 330 10,200 -2,040 Descending FlightAware
07:05PM 40.5690 -73.6540 173° South 279 321 9,700 -2,100 Descending FlightAware
07:06PM 40.5410 -73.6550 182° South 273 314 8,900 -2,040 Descending FlightAware
07:06PM 40.5090 -73.6580 184° South 272 313 8,100 -1,440 Descending FlightAware
07:06PM 40.4860 -73.6640 191° South 269 310 7,900 -300 Descending FlightAware
07:07PM 40.4610 -73.6790 205° Southwest 267 307 7,900 -420 Level FlightAware
07:07PM 40.4370 -73.6940 205° Southwest 262 302 7,600 -1,200 Descending FlightAware
07:07PM 40.4220 -73.7070 213° Southwest 260 299 7,200 -1,920 Descending FlightAware
07:07PM 40.4150 -73.7180 230° Southwest 259 298 6,900 -1,680 Descending FlightAware
07:08PM 40.4070 -73.7350 238° Southwest 258 297 6,600 -1,620 Descending FlightAware
07:08PM 40.4050 -73.7450 255° West 258 297 6,400 -1,920 Descending FlightAware
07:08PM 40.4020 -73.7640 258° West 258 297 6,000 -1,800 Descending FlightAware
07:08PM 40.3960 -73.8010 258° West 258 297 5,300 -1,980 Descending FlightAware
07:09PM 40.3930 -73.8300 262° West 260 299 4,600 -1,740 Descending FlightAware
07:09PM 40.3980 -73.8580 283° West 256 295 4,200 -1,200 Descending FlightAware
07:09PM 40.4070 -73.8800 298° West 248 285 3,900 -540 Descending FlightAware
07:10PM 40.4160 -73.9020 298° West 230 265 3,900 -180 Level FlightAware
07:10PM 40.4250 -73.9240 298° West 214 246 3,800 -720 Descending FlightAware
07:10PM 40.4350 -73.9420 306° West 216 249 3,500 -1,080 Descending FlightAware
07:10PM 40.4530 -73.9610 321° Northwest 220 253 3,100 -720 Descending FlightAware
07:11PM 40.4790 -73.9740 339° North 230 265 2,900 -300 Descending FlightAware
07:11PM 40.4940 -73.9760 354° North 231 266 2,900  Level FlightAware
07:11PM 40.5090 -73.9760 360° North 230 265 2,900  Level FlightAware
07:12PM 40.5210 -73.9760 360° North 232 267 2,900 -180 Level FlightAware
07:12PM 40.5450 -73.9630 22° Northeast 228 262 2,800 -600 Descending FlightAware
07:12PM 40.5610 -73.9490 34° Northeast 224 258 2,500 -900 Descending FlightAware
07:13PM 40.5790 -73.9320 36° Northeast 216 249 2,200 -900 Descending FlightAware
07:13PM 40.6080 -73.9080 32° Northeast 219 252 1,700 -960 Descending FlightAware
07:14PM 40.6240 -73.8940 34° Northeast 218 251 1,400 -780 Descending FlightAware
07:14PM 40.6420 -73.8810 29° Northeast 202 232 1,200 -720 Descending FlightAware
07:14PM 40.6530 -73.8730 29° Northeast 191 220 1,000 -720 Descending FlightAware
07:14PM 40.6660 -73.8630 30° Northeast 169 194 800 -480 Descending FlightAware
07:15PM 40.6720 -73.8580 32° Northeast 159 183 800 -480 Level FlightAware
07:15PM 40.6760 -73.8530 43° Northeast 157 181 700 -840 Descending FlightAware
07:15PM 40.6810 -73.8420 59° Northeast 149 171 500 -540 Descending FlightAware
07:15PM 40.6830 -73.8360 66° East 144 166 500 -420 Level FlightAware
07:16PM 40.6800 -73.8070 98° East 129 148 200 -540 Descending FlightAware
07:16PM 40.6740 -73.7930 119° Southeast 130 150 -660 Descending FlightAware
07:16PM 40.6710 -73.7870 123° Southeast 128 147  Level FlightAware